weather station
Area: 4758 km2
The highest point: Sněžka (1603 m.s.l.)
Total stations: 27
Stations online: 27
Stations offline: 0
Current weather
4°C

Meteorological map - weather stations in Královéhradecký

. The meteorological maps show weather information from WARIO weather stations

Weather stations Královéhradecký

 UpdatesNameStatusTemperatureHumidityWind speedWind direction
13.4.2021 18:56Božanov2.9 °C67.4 %0.0 m/s N
13.4.2021 18:55Červený Kostelec - Bohdašín1.2 °C70.7 %0.0 m/s W
13.4.2021 18:56Červený Kostelec - Stolín4.1 °C61.2 %1.1 m/s W
13.4.2021 18:55Brzice2.8 °C66.0 %3.3 m/s N
13.4.2021 18:56Chlumec nad Cidlinou IV5.0 °C63.6 %2.1 m/s S
13.4.2021 18:56Chlumec nad Cidlinou II5.2 °C63.4 %2.0 m/s N
13.4.2021 18:56Hradec Králové - Plotiště nad Labem4.7 °C68.9 %1.9 m/s W
13.4.2021 18:48Vrchlabí2.4 °C73.9 %1.7 m/s N
13.4.2021 18:56Hajnice2.5 °C69.3 %1.8 m/s NW
13.4.2021 18:56Černilov4.7 °C69.2 %0.0 m/s NE
13.4.2021 18:56Jaroměř-Josefov5.0 °C54.0 %0.9 m/s SW
13.4.2021 18:56Jičín4.3 °C58.3 %2.1 m/s NW
13.4.2021 18:56Kacákova Lhota5.3 °C56.7 %2.1 m/s W
13.4.2021 18:55Hradec Králové5.5 °C51.7 %0.0 m/s N
13.4.2021 18:56Pecka - Horní Javoří2.7 °C61.5 %2.4 m/s SE
13.4.2021 18:56Janatov4.8 °C57.4 %2.0 m/s W
13.4.2021 18:55Hradec Králové - Roudnička4.5 °C61.7 %1.3 m/s NW
13.4.2021 18:55Pohoří4.9 °C59.7 %2.8 m/s NW
13.4.2021 18:56Police nad Metují3.0 °C68.3 %2.5 m/s W
13.4.2021 18:56Zábřezí - Řečice3.4 °C69.0 %3.9 m/s NE
13.4.2021 18:56Skuřina3.4 °C64.7 %1.7 m/s E
13.4.2021 18:56Sobotka3.5 °C71.2 %2.9 m/s N
13.4.2021 18:56Velká Jesenice4.3 °C51.1 %2.2 m/s NE
13.4.2021 18:56Vrchlabí2.4 °C63.9 %1.0 m/s N
13.4.2021 18:56Vrchovnice4.2 °C53.4 %2.3 m/s N
13.4.2021 18:56Vysoká nad Labem4.8 °C57.3 %1.3 m/s W
13.4.2021 18:56Lužec nad Cidlinou126.9 °C100.0 %0.0 m/s NW
Email notifications
Enter your email address to subscribe to notifications about news at warioweather.com. Your email address will not be used for any purpose other than sending these emails and will not be provided to any third party. The subscription can be ended at any time.
All data are only indicative. The portal administrator has no responsibility for potentially incorrect data and related consequences. Publishing or further sharing of content from www.warioweather.com is only allowed with written consent from WANET s.r.o.